createdAt,value
2019-03-05T00:02:08.184Z,2.52
2019-03-05T00:04:39.715Z,2.37
2019-03-05T00:07:11.860Z,2.58
2019-03-05T00:09:43.986Z,2.67
2019-03-05T00:12:15.847Z,2.80
2019-03-05T00:14:47.526Z,3.00
2019-03-05T00:17:18.516Z,3.00
2019-03-05T00:19:50.589Z,2.70
2019-03-05T00:22:21.593Z,2.67
2019-03-05T00:25:11.933Z,2.80
2019-03-05T00:28:12.654Z,2.85
2019-03-05T00:31:04.360Z,2.60
2019-03-05T00:34:23.239Z,2.77
2019-03-05T00:37:10.865Z,2.60
2019-03-05T00:40:27.916Z,2.47
2019-03-05T00:43:17.366Z,2.25
2019-03-05T00:46:19.420Z,2.52
2019-03-05T00:49:12.720Z,2.05
2019-03-05T00:52:24.364Z,2.30
2019-03-05T00:55:52.397Z,2.30
2019-03-05T00:59:25.016Z,2.87
2019-03-05T01:02:16.896Z,2.10
2019-03-05T01:05:52.282Z,2.02
2019-03-05T01:08:24.529Z,1.80
2019-03-05T01:10:56.460Z,2.17
2019-03-05T01:13:27.621Z,1.90
2019-03-05T01:15:58.849Z,1.90
2019-03-05T01:18:31.141Z,1.65
2019-03-05T01:21:02.925Z,1.60
2019-03-05T01:23:35.620Z,1.62
2019-03-05T01:26:07.773Z,1.90
2019-03-05T01:28:39.057Z,1.67
2019-03-05T01:31:41.672Z,1.65
2019-03-05T01:34:23.972Z,1.90
2019-03-05T01:36:58.682Z,2.00
2019-03-05T01:39:35.255Z,1.90
2019-03-05T01:42:07.429Z,2.02
2019-03-05T01:44:39.855Z,2.12
2019-03-05T01:47:11.115Z,2.20
2019-03-05T01:49:42.779Z,2.40
2019-03-05T01:52:14.015Z,2.47
2019-03-05T01:54:45.297Z,2.90
2019-03-05T01:57:16.541Z,2.55
2019-03-05T01:59:48.281Z,2.70
2019-03-05T02:02:20.215Z,2.30
2019-03-05T02:04:51.528Z,2.30
2019-03-05T02:07:23.521Z,2.77
2019-03-05T02:09:55.230Z,2.62
2019-03-05T02:12:26.961Z,2.42
2019-03-05T02:14:58.741Z,2.52
2019-03-05T02:17:29.728Z,2.80
2019-03-05T02:20:01.237Z,2.70
2019-03-05T02:22:58.662Z,2.55
2019-03-05T02:26:32.216Z,2.98
2019-03-05T02:30:18.251Z,2.87
2019-03-05T02:33:23.828Z,3.25
2019-03-05T02:36:52.905Z,3.70
2019-03-05T02:39:55.642Z,3.10
2019-03-05T02:43:30.844Z,2.83
2019-03-05T02:46:52.885Z,2.85
2019-03-05T02:49:59.137Z,2.98
2019-03-05T02:53:20.904Z,3.00
2019-03-05T02:56:25.728Z,3.00
2019-03-05T02:58:55.238Z,2.60
2019-03-05T03:01:52.170Z,3.08
2019-03-05T03:04:26.723Z,3.25
2019-03-05T03:06:58.237Z,3.55
2019-03-05T03:10:12.826Z,3.15
2019-03-05T03:12:45.151Z,2.98
2019-03-05T03:15:18.344Z,3.08
2019-03-05T03:17:50.911Z,3.08
2019-03-05T03:20:23.535Z,3.42
2019-03-05T03:22:55.193Z,3.37
2019-03-05T03:25:26.843Z,3.33
2019-03-05T03:27:58.598Z,2.40
2019-03-05T03:30:30.799Z,2.92
2019-03-05T03:33:02.423Z,3.20
2019-03-05T03:35:34.068Z,3.00
2019-03-05T03:38:05.384Z,3.00
2019-03-05T03:40:36.983Z,3.12
2019-03-05T03:43:08.281Z,3.37
2019-03-05T03:45:40.167Z,3.02
2019-03-05T03:48:11.717Z,3.08
2019-03-05T03:50:43.738Z,3.55
2019-03-05T03:53:15.437Z,2.47
2019-03-05T03:55:47.179Z,3.00
2019-03-05T03:58:18.514Z,2.95
2019-03-05T04:00:49.998Z,2.80
2019-03-05T04:03:21.656Z,2.67
2019-03-05T04:05:53.722Z,2.72
2019-03-05T04:08:25.179Z,2.60
2019-03-05T04:10:56.828Z,2.33
2019-03-05T04:13:28.692Z,2.45
2019-03-05T04:16:00.655Z,3.05
2019-03-05T04:18:32.766Z,2.62
2019-03-05T04:21:04.883Z,2.33
2019-03-05T04:23:36.535Z,2.60
2019-03-05T04:26:08.386Z,2.40
2019-03-05T04:28:40.301Z,2.60
2019-03-05T04:31:11.611Z,2.35
2019-03-05T04:33:43.258Z,2.50
2019-03-05T04:36:14.271Z,2.50
2019-03-05T04:38:45.624Z,2.37
2019-03-05T04:41:18.050Z,2.62
2019-03-05T04:43:49.035Z,2.98
2019-03-05T04:46:37.450Z,2.70
2019-03-05T04:49:26.758Z,2.60
2019-03-05T04:52:03.763Z,2.35
2019-03-05T04:54:34.762Z,2.52
2019-03-05T04:57:06.825Z,2.58
2019-03-05T04:59:38.299Z,2.25
2019-03-05T05:02:10.249Z,2.20
2019-03-05T05:04:42.043Z,2.12
2019-03-05T05:07:13.343Z,2.27
2019-03-05T05:09:45.172Z,2.05
2019-03-05T05:12:17.108Z,3.12
2019-03-05T05:14:48.754Z,2.30
2019-03-05T05:17:20.387Z,2.50
2019-03-05T05:19:52.027Z,2.72
2019-03-05T05:22:23.892Z,2.50
2019-03-05T05:24:55.160Z,2.30
2019-03-05T05:27:26.715Z,2.45
2019-03-05T05:29:58.852Z,2.50
2019-03-05T05:32:30.129Z,2.60
2019-03-05T05:35:01.446Z,2.30
2019-03-05T05:37:33.034Z,2.60
2019-03-05T05:40:33.168Z,2.08
2019-03-05T05:43:06.043Z,2.05
2019-03-05T05:45:42.248Z,1.90
2019-03-05T05:48:14.535Z,2.00
2019-03-05T05:50:46.272Z,2.12
2019-03-05T05:53:18.093Z,2.33
2019-03-05T05:55:49.411Z,1.98
2019-03-05T05:58:20.795Z,2.40
2019-03-05T06:00:54.560Z,1.40
2019-03-05T06:03:25.935Z,2.22
2019-03-05T06:05:57.794Z,2.30
2019-03-05T06:08:29.437Z,1.70
2019-03-05T06:11:01.184Z,2.20
2019-03-05T06:13:33.373Z,2.10
2019-03-05T06:16:05.200Z,2.45
2019-03-05T06:18:37.465Z,2.10
2019-03-05T06:21:09.026Z,2.00
2019-03-05T06:23:40.860Z,2.20
2019-03-05T06:26:12.876Z,1.95
2019-03-05T06:28:44.400Z,2.52
2019-03-05T06:31:15.364Z,2.20
2019-03-05T06:33:46.729Z,2.20
2019-03-05T06:36:18.630Z,2.17
2019-03-05T06:38:50.499Z,1.87
2019-03-05T06:41:22.679Z,1.47
2019-03-05T06:43:54.231Z,1.42
2019-03-05T06:46:25.994Z,1.60
2019-03-05T06:48:57.827Z,1.45
2019-03-05T06:51:29.489Z,1.55
2019-03-05T06:54:01.270Z,2.02
2019-03-05T06:56:33.116Z,1.65
2019-03-05T06:59:04.779Z,1.47
2019-03-05T07:01:36.028Z,1.30
2019-03-05T07:04:07.710Z,1.30
2019-03-05T07:06:56.915Z,1.65
2019-03-05T07:09:40.086Z,1.80
2019-03-05T07:12:52.356Z,1.77
2019-03-05T07:15:56.932Z,2.20
2019-03-05T07:18:40.525Z,1.70
2019-03-05T07:22:05.963Z,1.98
2019-03-05T07:24:51.602Z,2.30
2019-03-05T07:27:55.459Z,2.22
2019-03-05T07:30:28.402Z,3.30
2019-03-05T07:33:01.071Z,2.30
2019-03-05T07:35:34.340Z,2.35
2019-03-05T07:38:06.558Z,2.27
2019-03-05T07:40:37.587Z,2.40
2019-03-05T07:43:09.883Z,2.70
2019-03-05T07:45:41.589Z,2.47
2019-03-05T07:48:13.286Z,2.60
2019-03-05T07:50:44.627Z,3.20
2019-03-05T07:53:15.990Z,4.50
2019-03-05T07:55:47.017Z,3.40
2019-03-05T07:58:18.692Z,17.73
2019-03-05T08:00:51.703Z,6.83
2019-03-05T08:03:23.524Z,2.73
2019-03-05T08:05:55.292Z,2.33
2019-03-05T08:09:21.189Z,2.50
2019-03-05T08:11:53.310Z,2.73
2019-03-05T08:15:31.589Z,3.57
2019-03-05T08:18:02.915Z,3.85
2019-03-05T08:20:34.710Z,2.30
2019-03-05T08:23:06.977Z,1.90
2019-03-05T08:25:38.365Z,1.42
2019-03-05T08:28:10.173Z,1.97
2019-03-05T08:30:41.961Z,1.60
2019-03-05T08:33:13.711Z,1.80
2019-03-05T08:35:45.431Z,1.57
2019-03-05T08:38:16.690Z,2.73
2019-03-05T08:40:48.322Z,1.50
2019-03-05T08:43:19.982Z,1.60
2019-03-05T08:45:51.773Z,1.30
2019-03-05T08:48:24.005Z,1.80
2019-03-05T08:50:56.533Z,1.57
2019-03-05T08:53:27.887Z,1.80
2019-03-05T08:56:00.008Z,1.77
2019-03-05T08:58:31.518Z,1.80
2019-03-05T09:01:03.205Z,1.83
2019-03-05T09:03:35.150Z,1.60
2019-03-05T09:06:07.371Z,1.63
2019-03-05T09:08:39.890Z,1.30
2019-03-05T09:11:11.333Z,1.77
2019-03-05T09:13:43.268Z,1.40
2019-03-05T09:16:14.807Z,1.65
2019-03-05T09:18:46.536Z,1.70
2019-03-05T09:21:18.418Z,1.50
2019-03-05T09:24:18.091Z,1.60
2019-03-05T09:26:51.429Z,1.60
2019-03-05T09:29:23.275Z,1.70
2019-03-05T09:31:55.370Z,1.67
2019-03-05T09:34:26.397Z,1.60
2019-03-05T09:36:57.743Z,2.10
2019-03-05T09:39:29.143Z,1.73
2019-03-05T09:42:01.042Z,2.50
2019-03-05T09:44:33.120Z,1.70
2019-03-05T09:47:04.737Z,2.13
2019-03-05T09:49:36.354Z,1.30
2019-03-05T09:52:07.638Z,1.77
2019-03-05T09:54:39.836Z,1.47
2019-03-05T09:57:10.844Z,1.43
2019-03-05T09:59:42.066Z,1.60
2019-03-05T10:02:14.469Z,1.63
2019-03-05T10:04:45.785Z,1.30
2019-03-05T10:07:19.258Z,1.10
2019-03-05T10:09:51.219Z,1.20
2019-03-05T10:12:23.163Z,1.60
2019-03-05T10:14:55.112Z,1.10
2019-03-05T10:17:37.464Z,1.77
2019-03-05T10:19:59.702Z,1.40
2019-03-05T10:22:31.046Z,1.40
2019-03-05T10:25:05.936Z,1.20
2019-03-05T10:27:36.456Z,1.30
2019-03-05T10:30:24.763Z,1.17
2019-03-05T10:32:51.665Z,1.00
2019-03-05T10:35:25.557Z,1.33
2019-03-05T10:37:59.096Z,1.30
2019-03-05T10:40:33.827Z,1.20
2019-03-05T10:43:08.879Z,1.00
2019-03-05T10:45:44.483Z,1.70
2019-03-05T10:48:18.245Z,1.80
2019-03-05T10:50:52.126Z,1.93
2019-03-05T10:53:23.733Z,1.50
2019-03-05T10:55:55.547Z,1.10
2019-03-05T10:58:33.909Z,1.33
2019-03-05T11:01:01.022Z,1.20
2019-03-05T11:03:33.518Z,1.23
2019-03-05T11:06:07.403Z,1.20
2019-03-05T11:08:39.645Z,0.93
2019-03-05T11:11:13.862Z,0.97
2019-03-05T11:13:44.998Z,0.70
2019-03-05T11:16:16.368Z,1.10
2019-03-05T11:18:50.126Z,0.90
2019-03-05T11:21:21.759Z,1.00
2019-03-05T11:23:53.537Z,1.03
2019-03-05T11:26:25.278Z,1.07
2019-03-05T11:28:57.060Z,1.00
2019-03-05T11:31:29.800Z,0.80
2019-03-05T11:34:01.461Z,0.80
2019-03-05T11:36:33.549Z,0.93
2019-03-05T11:39:05.669Z,2.57
2019-03-05T11:41:38.745Z,1.80
2019-03-05T11:44:10.230Z,1.03
2019-03-05T11:46:42.214Z,1.40
2019-03-05T11:49:13.648Z,1.37
2019-03-05T11:51:45.669Z,1.40
2019-03-05T11:54:16.956Z,1.43
2019-03-05T11:56:48.635Z,1.10
2019-03-05T11:59:20.278Z,1.00
2019-03-05T12:01:52.797Z,1.10
2019-03-05T12:04:24.066Z,0.90
2019-03-05T12:06:55.400Z,1.10
2019-03-05T12:09:26.763Z,0.93
2019-03-05T12:11:58.394Z,0.60
2019-03-05T12:14:30.061Z,0.97
2019-03-05T12:17:01.442Z,0.83
2019-03-05T12:19:33.063Z,0.80
2019-03-05T12:22:05.268Z,0.80
2019-03-05T12:24:37.303Z,0.70
2019-03-05T12:27:09.220Z,0.90
2019-03-05T12:29:40.844Z,0.90
2019-03-05T12:32:12.362Z,1.03
2019-03-05T12:34:44.558Z,0.73
2019-03-05T12:37:16.110Z,0.80
2019-03-05T12:39:48.073Z,0.80
2019-03-05T12:42:20.510Z,0.60
2019-03-05T12:44:52.594Z,0.70
2019-03-05T12:47:24.817Z,0.70
2019-03-05T12:49:56.358Z,1.00
2019-03-05T12:52:27.972Z,1.00
2019-03-05T12:54:59.335Z,1.13
2019-03-05T12:57:30.955Z,0.77
2019-03-05T13:00:02.626Z,1.23
2019-03-05T13:02:35.688Z,1.33
2019-03-05T13:05:11.750Z,2.60
2019-03-05T13:07:43.935Z,1.93
2019-03-05T13:10:18.741Z,2.75
2019-03-05T13:12:50.743Z,1.00
2019-03-05T13:15:25.320Z,1.27
2019-03-05T13:17:56.717Z,0.90
2019-03-05T13:20:28.460Z,0.80
2019-03-05T13:23:08.734Z,0.90
2019-03-05T13:25:35.033Z,0.80
2019-03-05T13:28:06.722Z,1.20
2019-03-05T13:30:40.348Z,1.13
2019-03-05T13:33:12.129Z,0.97
2019-03-05T13:35:43.850Z,1.13
2019-03-05T13:38:15.014Z,1.23
2019-03-05T13:40:46.765Z,1.30
2019-03-05T13:43:18.587Z,1.20
2019-03-05T13:45:50.401Z,1.20
2019-03-05T13:49:18.292Z,1.30
2019-03-05T13:52:36.102Z,1.20
2019-03-05T13:55:49.608Z,1.60
2019-03-05T13:59:11.939Z,1.40
2019-03-05T14:01:43.991Z,1.22
2019-03-05T14:04:26.679Z,1.50
2019-03-05T14:07:46.892Z,1.83
2019-03-05T14:10:19.061Z,2.42
2019-03-05T14:12:50.795Z,2.83
2019-03-05T14:15:22.594Z,1.87
2019-03-05T14:17:54.561Z,2.20
2019-03-05T14:20:31.806Z,2.17
2019-03-05T14:23:00.421Z,2.17
2019-03-05T14:25:32.650Z,1.80
2019-03-05T14:28:04.014Z,1.55
2019-03-05T14:30:35.780Z,2.20
2019-03-05T14:33:07.417Z,2.10
2019-03-05T14:35:38.898Z,2.00
2019-03-05T14:38:10.685Z,2.12
2019-03-05T14:40:41.880Z,2.08
2019-03-05T14:43:13.867Z,1.90
2019-03-05T14:45:46.182Z,2.10
2019-03-05T14:48:17.592Z,2.55
2019-03-05T14:50:48.747Z,2.10
2019-03-05T14:53:20.528Z,2.22
2019-03-05T14:55:54.489Z,3.05
2019-03-05T14:58:25.462Z,2.80
2019-03-05T15:00:56.988Z,3.50
2019-03-05T15:03:29.056Z,2.83
2019-03-05T15:06:00.093Z,2.90
2019-03-05T15:08:31.923Z,4.33
2019-03-05T15:11:04.039Z,5.13
2019-03-05T15:13:36.235Z,3.20
2019-03-05T15:16:07.963Z,2.70
2019-03-05T15:18:40.092Z,2.47
2019-03-05T15:21:11.545Z,2.87
2019-03-05T15:23:43.169Z,2.97
2019-03-05T15:26:14.770Z,2.45
2019-03-05T15:28:55.683Z,2.60
2019-03-05T15:31:19.903Z,2.60
2019-03-05T15:33:51.393Z,2.70
2019-03-05T15:36:24.183Z,2.30
2019-03-05T15:38:55.637Z,3.10
2019-03-05T15:41:28.252Z,3.37
2019-03-05T15:44:00.331Z,3.05
2019-03-05T15:46:31.963Z,2.90
2019-03-05T15:49:03.704Z,3.08
2019-03-05T15:51:34.953Z,4.22
2019-03-05T15:54:06.638Z,5.67
2019-03-05T15:56:38.202Z,3.62
2019-03-05T15:59:09.535Z,5.37
2019-03-05T16:01:41.192Z,4.40
2019-03-05T16:04:12.747Z,5.12
2019-03-05T16:06:44.510Z,4.58
2019-03-05T16:09:18.978Z,4.83
2019-03-05T16:12:10.718Z,5.85
2019-03-05T16:14:42.094Z,7.05
2019-03-05T16:17:14.278Z,3.02
2019-03-05T16:19:49.004Z,3.90
2019-03-05T16:22:20.143Z,3.52
2019-03-05T16:24:51.486Z,5.28
2019-03-05T16:27:22.993Z,3.70
2019-03-05T16:29:55.781Z,3.33
2019-03-05T16:32:34.134Z,3.27
2019-03-05T16:35:40.254Z,3.87
2019-03-05T16:38:20.163Z,2.90
2019-03-05T16:41:10.956Z,5.08
2019-03-05T16:44:00.215Z,3.35
2019-03-05T16:46:41.308Z,2.52
2019-03-05T16:49:42.234Z,2.72
2019-03-05T16:52:33.748Z,3.77
2019-03-05T16:55:36.351Z,3.10
2019-03-05T16:58:21.948Z,3.20
2019-03-05T17:01:18.892Z,4.58
2019-03-05T17:04:10.711Z,3.33
2019-03-05T17:07:10.708Z,3.90
2019-03-05T17:10:01.487Z,3.80
2019-03-05T17:12:35.237Z,7.08
2019-03-05T17:15:06.964Z,4.00
2019-03-05T17:17:38.847Z,3.77
2019-03-05T17:20:11.491Z,3.10
2019-03-05T17:22:42.499Z,3.15
2019-03-05T17:25:15.872Z,3.25
2019-03-05T17:27:47.721Z,3.42
2019-03-05T17:30:19.895Z,3.52
2019-03-05T17:32:51.731Z,3.27
2019-03-05T17:35:23.698Z,3.08
2019-03-05T17:37:54.875Z,4.03
2019-03-05T17:40:26.204Z,5.45
2019-03-05T17:42:58.502Z,3.65
2019-03-05T17:45:30.174Z,3.25
2019-03-05T17:48:02.191Z,3.42
2019-03-05T17:50:34.126Z,3.55
2019-03-05T17:53:06.124Z,2.90
2019-03-05T17:55:38.727Z,2.65
2019-03-05T17:58:10.328Z,2.95
2019-03-05T18:00:43.526Z,3.00
2019-03-05T18:03:15.053Z,3.33
2019-03-05T18:05:46.371Z,3.17
2019-03-05T18:08:17.452Z,3.10
2019-03-05T18:10:49.151Z,3.60
2019-03-05T18:13:20.539Z,2.90
2019-03-05T18:15:52.632Z,3.33
2019-03-05T18:18:24.893Z,3.30
2019-03-05T18:20:56.547Z,3.87
2019-03-05T18:23:28.191Z,3.12
2019-03-05T18:26:00.007Z,3.12
2019-03-05T18:28:31.601Z,4.92
2019-03-05T18:31:02.722Z,4.20
2019-03-05T18:33:34.594Z,4.08
2019-03-05T18:36:06.329Z,4.35
2019-03-05T18:38:38.024Z,4.40
2019-03-05T18:41:09.991Z,4.40
2019-03-05T18:43:41.615Z,4.47
2019-03-05T18:46:13.471Z,4.33
2019-03-05T18:48:45.260Z,4.30
2019-03-05T18:51:16.309Z,4.35
2019-03-05T18:53:47.927Z,4.70
2019-03-05T18:56:19.037Z,5.15
2019-03-05T18:58:51.650Z,4.83
2019-03-05T19:01:23.187Z,4.97
2019-03-05T19:03:54.943Z,5.50
2019-03-05T19:06:26.598Z,5.35
2019-03-05T19:08:58.178Z,6.42
2019-03-05T19:11:31.062Z,6.25
2019-03-05T19:14:02.864Z,6.05
2019-03-05T19:16:34.169Z,5.83
2019-03-05T19:19:06.027Z,5.83
2019-03-05T19:21:37.503Z,6.75
2019-03-05T19:24:09.856Z,6.78
2019-03-05T19:26:41.598Z,6.10
2019-03-05T19:29:13.326Z,7.53
2019-03-05T19:31:44.961Z,5.90
2019-03-05T19:34:16.736Z,9.08
2019-03-05T19:36:48.615Z,8.73
2019-03-05T19:39:20.584Z,8.48
2019-03-05T19:41:55.976Z,7.62
2019-03-05T19:44:28.961Z,8.30
2019-03-05T19:47:00.131Z,7.20
2019-03-05T19:49:31.493Z,6.92
2019-03-05T19:52:03.152Z,6.40
2019-03-05T19:54:35.086Z,6.95
2019-03-05T19:57:06.519Z,6.85
2019-03-05T19:59:38.457Z,6.15
2019-03-05T20:02:09.801Z,6.33
2019-03-05T20:04:41.899Z,7.00
2019-03-05T20:07:13.962Z,6.58
2019-03-05T20:09:45.898Z,6.37
2019-03-05T20:12:18.776Z,6.75
2019-03-05T20:14:50.971Z,7.97
2019-03-05T20:17:22.355Z,8.48
2019-03-05T20:19:54.243Z,8.20
2019-03-05T20:22:25.792Z,6.70
2019-03-05T20:24:57.365Z,6.50
2019-03-05T20:27:29.008Z,7.08
2019-03-05T20:30:01.564Z,7.17
2019-03-05T20:32:34.446Z,7.20
2019-03-05T20:35:05.931Z,7.08
2019-03-05T20:37:38.190Z,7.53
2019-03-05T20:40:12.692Z,7.95
2019-03-05T20:42:44.992Z,8.63
2019-03-05T20:45:20.348Z,8.20
2019-03-05T20:47:51.964Z,9.58
2019-03-05T20:50:23.631Z,9.73
2019-03-05T20:52:55.390Z,9.43
2019-03-05T20:55:26.974Z,8.05
2019-03-05T20:57:58.803Z,9.13
2019-03-05T21:00:31.795Z,9.85
2019-03-05T21:03:05.219Z,9.25
2019-03-05T21:05:41.525Z,9.58
2019-03-05T21:08:13.971Z,10.18
2019-03-05T21:10:46.362Z,9.33
2019-03-05T21:13:18.053Z,9.03
2019-03-05T21:15:49.580Z,9.48
2019-03-05T21:18:20.841Z,8.85
2019-03-05T21:20:52.069Z,9.03
2019-03-05T21:23:24.260Z,8.55
2019-03-05T21:25:55.675Z,8.70
2019-03-05T21:28:26.929Z,8.30
2019-03-05T21:30:58.500Z,8.88
2019-03-05T21:33:29.475Z,8.00
2019-03-05T21:36:01.503Z,8.78
2019-03-05T21:38:34.040Z,7.67
2019-03-05T21:41:05.578Z,7.65
2019-03-05T21:43:39.034Z,8.10
2019-03-05T21:46:16.118Z,7.90
2019-03-05T21:48:47.442Z,8.30
2019-03-05T21:51:19.108Z,7.58
2019-03-05T21:53:50.619Z,7.78
2019-03-05T21:56:22.306Z,7.45
2019-03-05T21:58:54.139Z,7.30
2019-03-05T22:01:25.596Z,8.15
2019-03-05T22:03:57.342Z,7.47
2019-03-05T22:06:29.153Z,7.80
2019-03-05T22:09:01.331Z,7.92
2019-03-05T22:11:34.479Z,7.80
2019-03-05T22:14:05.779Z,7.37
2019-03-05T22:16:37.415Z,7.72
2019-03-05T22:19:09.570Z,7.95
2019-03-05T22:21:40.893Z,7.97
2019-03-05T22:24:12.750Z,7.15
2019-03-05T22:26:45.031Z,8.55
2019-03-05T22:29:17.485Z,8.28
2019-03-05T22:31:49.447Z,7.85
2019-03-05T22:34:20.976Z,7.80
2019-03-05T22:36:52.800Z,7.60
2019-03-05T22:39:24.458Z,7.90
2019-03-05T22:41:56.225Z,7.00
2019-03-05T22:44:27.901Z,7.37
2019-03-05T22:46:59.875Z,6.95
2019-03-05T22:49:31.431Z,7.30
2019-03-05T22:52:03.169Z,6.85
2019-03-05T22:54:35.007Z,6.45
2019-03-05T22:57:06.714Z,6.70
2019-03-05T22:59:38.100Z,6.72
2019-03-05T23:02:09.961Z,6.12
2019-03-05T23:04:45.009Z,7.15
2019-03-05T23:07:16.696Z,7.08
2019-03-05T23:09:53.561Z,6.85
2019-03-05T23:12:25.764Z,6.97
2019-03-05T23:14:57.595Z,7.30
2019-03-05T23:17:30.111Z,6.78
2019-03-05T23:20:02.152Z,6.30
2019-03-05T23:22:34.154Z,6.70
2019-03-05T23:25:06.252Z,7.05
2019-03-05T23:27:38.583Z,6.30
2019-03-05T23:30:12.140Z,6.72
2019-03-05T23:32:44.268Z,6.47
2019-03-05T23:35:16.410Z,7.20
2019-03-05T23:37:48.144Z,6.83
2019-03-05T23:40:20.351Z,6.65
2019-03-05T23:42:51.728Z,7.28
2019-03-05T23:45:23.863Z,6.58
2019-03-05T23:47:56.053Z,7.25
2019-03-05T23:50:27.776Z,7.08
2019-03-05T23:52:59.185Z,7.28
2019-03-05T23:55:31.080Z,7.55
2019-03-05T23:58:02.741Z,7.42
